Time;durP1;ratioP1;P1;durP2;ratioP2;P2;SDS_P1;SDS_P2;PMS_P1;PMS_P2;Temp;Humidity;BMP_temperature;BMP_pressure;BME280_temperature;BME280_humidity;BME280_pressure;Samples;Min_cycle;Max_cycle;Signal;HPM_P1;HPM_P2
2024/03/21 00:00:30;;;;;;;9.05;3.80;;;;;11.00;98785.00;;;;4917480;29;20135;-67
2024/03/21 00:02:56;;;;;;;7.43;3.70;;;;;11.10;98804.00;;;;4917864;29;20055;-67
2024/03/21 00:05:23;;;;;;;4.47;3.45;;;;;11.10;98793.00;;;;4917469;29;20052;-66
2024/03/21 00:07:49;;;;;;;5.47;3.88;;;;;11.20;98793.00;;;;4917632;29;20110;-66
2024/03/21 00:10:16;;;;;;;5.43;3.95;;;;;11.10;98792.00;;;;4917548;29;20040;-69
2024/03/21 00:12:42;;;;;;;6.20;4.25;;;;;10.90;98786.00;;;;4919230;29;20051;-67
2024/03/21 00:15:08;;;;;;;4.78;3.88;;;;;10.90;98800.00;;;;4920982;29;20040;-67
2024/03/21 00:17:35;;;;;;;4.97;3.95;;;;;10.90;98784.00;;;;4921093;29;20040;-67
2024/03/21 00:20:03;;;;;;;5.65;4.00;;;;;10.80;98781.00;;;;4921063;29;20052;-67
2024/03/21 00:22:29;;;;;;;7.57;4.70;;;;;10.70;98776.00;;;;4920924;29;20450;-67
2024/03/21 00:24:55;;;;;;;6.95;4.35;;;;;10.70;98778.00;;;;4937040;29;20043;-67
2024/03/21 00:27:21;;;;;;;5.85;3.97;;;;;10.70;98776.00;;;;4921305;29;20044;-66
2024/03/21 00:29:49;;;;;;;8.05;4.10;;;;;10.60;98774.00;;;;4921225;29;20485;-67
2024/03/21 00:32:16;;;;;;;5.90;3.95;;;;;10.60;98787.00;;;;4936640;29;20043;-67
2024/03/21 00:34:42;;;;;;;4.55;3.90;;;;;10.40;98780.00;;;;4920842;29;20095;-66
2024/03/21 00:37:07;;;;;;;6.32;3.80;;;;;10.40;98777.00;;;;4920880;29;20115;-67
2024/03/21 00:39:33;;;;;;;8.23;3.60;;;;;10.50;98784.00;;;;4920878;29;20504;-66
2024/03/21 00:41:59;;;;;;;6.28;3.83;;;;;10.50;98785.00;;;;4920798;29;20423;-67
2024/03/21 00:44:25;;;;;;;5.32;4.07;;;;;10.60;98796.00;;;;4921129;29;20047;-67
2024/03/21 00:46:51;;;;;;;9.27;4.97;;;;;10.80;98788.00;;;;4936178;29;20044;-67
2024/03/21 00:49:17;;;;;;;6.15;3.83;;;;;11.00;98794.00;;;;4917518;29;20040;-67
2024/03/21 00:51:43;;;;;;;10.13;4.45;;;;;11.20;98798.00;;;;4917457;29;20058;-67
2024/03/21 00:54:09;;;;;;;5.88;4.10;;;;;11.30;98783.00;;;;4901760;29;20070;-67
2024/03/21 00:56:35;;;;;;;4.43;3.45;;;;;11.20;98793.00;;;;4901671;29;20544;-67
2024/03/21 00:59:01;;;;;;;8.40;4.55;;;;;11.20;98781.00;;;;4901751;29;20052;-67
2024/03/21 01:01:27;;;;;;;7.75;4.25;;;;;11.20;98787.00;;;;4901346;29;20098;-68
2024/03/21 01:03:55;;;;;;;5.05;3.60;;;;;11.10;98774.00;;;;4901677;29;20044;-67
2024/03/21 01:06:20;;;;;;;4.85;3.67;;;;;11.00;98780.00;;;;4901895;29;20100;-67
2024/03/21 01:08:46;;;;;;;6.22;3.78;;;;;10.90;98772.00;;;;4901695;29;20397;-66
2024/03/21 01:11:12;;;;;;;5.60;3.85;;;;;10.80;98769.00;;;;4901296;29;20045;-66
2024/03/21 01:13:38;;;;;;;5.28;3.60;;;;;10.80;98782.00;;;;4917202;29;20503;-67
2024/03/21 01:16:07;;;;;;;6.07;3.80;;;;;11.00;98783.00;;;;4908317;29;20051;-67
2024/03/21 01:18:37;;;;;;;4.88;3.80;;;;;11.00;98784.00;;;;4919958;29;20047;-67
2024/03/21 01:21:04;;;;;;;8.82;4.55;;;;;11.00;98778.00;;;;4919992;29;20420;-67
2024/03/21 01:23:30;;;;;;;8.02;4.40;;;;;10.80;98782.00;;;;4919109;29;20051;-67
2024/03/21 01:25:56;;;;;;;7.97;4.53;;;;;10.70;98781.00;;;;4919855;29;20046;-67
2024/03/21 01:28:22;;;;;;;6.20;4.30;;;;;10.70;98786.00;;;;4920081;29;20126;-66
2024/03/21 01:30:47;;;;;;;5.28;4.38;;;;;10.70;98787.00;;;;4919661;29;20076;-67
2024/03/21 01:33:13;;;;;;;7.18;3.78;;;;;10.70;98791.00;;;;4919978;29;20044;-67
2024/03/21 01:35:39;;;;;;;8.52;4.30;;;;;10.60;98792.00;;;;4920018;29;20127;-66
2024/03/21 01:38:05;;;;;;;5.82;4.20;;;;;10.50;98788.00;;;;4935805;29;20051;-67
2024/03/21 01:40:32;;;;;;;6.30;3.90;;;;;10.50;98787.00;;;;4919568;29;20047;-67
2024/03/21 01:42:57;;;;;;;5.43;4.25;;;;;10.40;98794.00;;;;4919918;29;20067;-67
2024/03/21 01:45:23;;;;;;;8.32;4.72;;;;;10.40;98782.00;;;;4935238;29;20496;-66
2024/03/21 01:47:49;;;;;;;4.78;3.60;;;;;10.30;98782.00;;;;4919767;29;20051;-67
2024/03/21 01:50:14;;;;;;;4.35;3.80;;;;;10.20;98778.00;;;;4919543;29;20044;-66
2024/03/21 01:52:42;;;;;;;4.50;3.70;;;;;10.20;98778.00;;;;4903964;29;20460;-67
2024/03/21 01:55:12;;;;;;;10.07;4.45;;;;;10.10;98780.00;;;;4919651;29;20091;-67
2024/03/21 01:57:38;;;;;;;6.13;3.75;;;;;10.10;98777.00;;;;4919503;29;20091;-67
2024/03/21 02:00:05;;;;;;;7.50;4.55;;;;;10.10;98781.00;;;;4919503;29;20527;-67
2024/03/21 02:02:30;;;;;;;8.80;4.57;;;;;10.20;98786.00;;;;4919461;29;20050;-67
2024/03/21 02:04:57;;;;;;;10.20;4.88;;;;;10.10;98777.00;;;;4919300;29;20075;-67
2024/03/21 02:07:22;;;;;;;7.80;4.78;;;;;10.10;98775.00;;;;4920605;29;20055;-67
2024/03/21 02:09:49;;;;;;;9.10;4.93;;;;;10.20;98783.00;;;;4919389;29;20058;-67
2024/03/21 02:12:40;;;;;;;5.30;4.10;;;;;10.20;98791.00;;;;4919199;29;20039;-69
2024/03/21 02:15:08;;;;;;;4.68;3.58;;;;;10.20;98794.00;;;;4919881;29;20040;-67
2024/03/21 02:17:34;;;;;;;4.22;3.08;;;;;10.40;98794.00;;;;4924471;29;20055;-67
2024/03/21 02:19:59;;;;;;;6.80;3.30;;;;;10.30;98792.00;;;;4919481;29;20047;-67
2024/03/21 02:22:37;;;;;;;3.67;3.25;;;;;10.30;98785.00;;;;4919385;29;20548;-67
2024/03/21 02:25:09;;;;;;;9.52;3.95;;;;;10.20;98796.00;;;;4935187;29;20051;-67
2024/03/21 02:27:39;;;;;;;8.75;4.55;;;;;10.30;98797.00;;;;4919715;29;20052;-67
2024/03/21 02:30:07;;;;;;;5.82;4.22;;;;;10.40;98805.00;;;;4903276;29;20047;-67
2024/03/21 02:32:33;;;;;;;5.18;3.97;;;;;10.50;98806.00;;;;4919020;29;20560;-67
2024/03/21 02:35:00;;;;;;;6.43;4.03;;;;;10.40;98800.00;;;;4918862;29;20500;-68
2024/03/21 02:37:26;;;;;;;4.25;3.63;;;;;10.40;98794.00;;;;4918880;29;20047;-67
2024/03/21 02:39:51;;;;;;;4.95;3.20;;;;;10.30;98800.00;;;;4918992;29;20567;-67
2024/03/21 02:42:18;;;;;;;4.55;3.30;;;;;10.20;98796.00;;;;4918668;29;20086;-67
2024/03/21 02:44:45;;;;;;;4.10;2.85;;;;;10.10;98802.00;;;;4918806;29;20051;-67
2024/03/21 02:47:10;;;;;;;6.57;3.70;;;;;10.10;98798.00;;;;4918311;29;20047;-67
2024/03/21 02:49:36;;;;;;;4.68;3.63;;;;;10.10;98810.00;;;;4918583;29;20386;-68
2024/03/21 02:52:01;;;;;;;4.07;3.20;;;;;9.90;98806.00;;;;4918271;29;20048;-67
2024/03/21 02:54:27;;;;;;;5.13;3.75;;;;;9.90;98809.00;;;;4917069;29;20051;-67
2024/03/21 02:56:52;;;;;;;4.15;3.67;;;;;9.90;98807.00;;;;4918299;29;20067;-68
2024/03/21 02:59:18;;;;;;;7.03;4.13;;;;;9.90;98807.00;;;;4918388;29;20043;-67
2024/03/21 03:01:44;;;;;;;6.13;3.90;;;;;9.90;98810.00;;;;4918100;29;20040;-67
2024/03/21 03:04:10;;;;;;;5.97;4.07;;;;;9.90;98799.00;;;;4918345;29;20048;-67
2024/03/21 03:06:36;;;;;;;5.65;4.05;;;;;9.90;98802.00;;;;4918449;29;20055;-67
2024/03/21 03:09:02;;;;;;;8.65;3.80;;;;;10.00;98807.00;;;;4920036;29;20076;-67
2024/03/21 03:11:27;;;;;;;8.60;4.03;;;;;10.00;98794.00;;;;4918946;29;20047;-67
2024/03/21 03:13:53;;;;;;;3.70;3.40;;;;;10.00;98796.00;;;;4918068;29;20048;-67
2024/03/21 03:16:19;;;;;;;5.20;3.45;;;;;10.10;98797.00;;;;4902003;29;20078;-67
2024/03/21 03:18:44;;;;;;;3.95;2.97;;;;;10.10;98804.00;;;;4918200;29;20051;-67
2024/03/21 03:21:10;;;;;;;5.88;3.45;;;;;10.10;98806.00;;;;4933777;29;20051;-67
2024/03/21 03:23:36;;;;;;;3.70;3.22;;;;;10.10;98807.00;;;;4918401;29;20040;-66
2024/03/21 03:26:01;;;;;;;7.75;3.83;;;;;10.10;98816.00;;;;4934105;29;20065;-67
2024/03/21 03:28:27;;;;;;;4.88;4.25;;;;;10.20;98814.00;;;;4918283;29;20493;-67
2024/03/21 03:30:52;;;;;;;5.38;4.30;;;;;10.20;98813.00;;;;4902128;29;20043;-68
2024/03/21 03:36:02;;;;;;;;;;;;;10.10;98815.00;;;;4918456;29;20039;-67
2024/03/21 03:38:28;;;;;;;4.68;4.07;;;;;10.20;98820.00;;;;4918184;29;20323;-66
2024/03/21 03:40:54;;;;;;;5.93;4.13;;;;;10.30;98819.00;;;;4933542;29;20063;-67
2024/03/21 03:43:19;;;;;;;4.90;3.85;;;;;10.50;98819.00;;;;4918235;29;20205;-67
2024/03/21 03:45:45;;;;;;;9.40;3.75;;;;;10.50;98808.00;;;;4918094;29;20408;-67
2024/03/21 03:48:10;;;;;;;5.25;3.83;;;;;10.50;98814.00;;;;4920383;29;20070;-67
2024/03/21 03:50:36;;;;;;;7.38;4.28;;;;;10.50;98822.00;;;;4921498;29;20040;-67
2024/03/21 03:53:02;;;;;;;6.15;3.95;;;;;10.30;98816.00;;;;4922044;29;20071;-67
2024/03/21 03:55:27;;;;;;;14.27;4.22;;;;;10.30;98822.00;;;;4921596;29;20044;-67
2024/03/21 03:57:53;;;;;;;8.23;4.32;;;;;10.20;98825.00;;;;4921569;29;20055;-67
2024/03/21 04:00:20;;;;;;;6.22;4.40;;;;;10.10;98818.00;;;;4937185;29;20546;-67
2024/03/21 04:02:46;;;;;;;5.78;4.40;;;;;10.00;98818.00;;;;4921980;29;20102;-67
2024/03/21 04:05:15;;;;;;;5.95;4.30;;;;;10.00;98817.00;;;;4921819;29;20501;-67
2024/03/21 04:07:40;;;;;;;8.32;4.25;;;;;10.00;98807.00;;;;4921545;29;20059;-67
2024/03/21 04:10:06;;;;;;;11.25;4.45;;;;;9.90;98816.00;;;;4921677;29;20047;-68
2024/03/21 04:12:32;;;;;;;4.78;4.20;;;;;10.00;98809.00;;;;4921170;29;20433;-68
2024/03/21 04:14:58;;;;;;;6.70;4.50;;;;;9.90;98815.00;;;;4921591;29;20062;-67
2024/03/21 04:17:23;;;;;;;7.68;4.50;;;;;9.70;98812.00;;;;4921161;29;20044;-68
2024/03/21 04:19:49;;;;;;;5.18;4.30;;;;;9.60;98807.00;;;;4921466;29;20481;-66
2024/03/21 04:22:15;;;;;;;4.93;4.13;;;;;9.60;98811.00;;;;4938685;29;20048;-65
2024/03/21 04:24:41;;;;;;;6.43;4.20;;;;;9.60;98808.00;;;;4926015;29;20055;-67
2024/03/21 04:27:08;;;;;;;7.88;4.40;;;;;9.60;98804.00;;;;4921345;29;20110;-66
2024/03/21 04:29:34;;;;;;;5.60;4.00;;;;;9.50;98809.00;;;;4924097;29;20051;-67
2024/03/21 04:32:00;;;;;;;5.55;4.22;;;;;9.50;98805.00;;;;4921213;29;20452;-67
2024/03/21 04:34:25;;;;;;;5.57;3.97;;;;;9.60;98815.00;;;;4921078;29;20047;-66
2024/03/21 04:36:51;;;;;;;11.27;3.78;;;;;9.70;98810.00;;;;4921029;29;20082;-66
2024/03/21 04:39:17;;;;;;;5.70;3.90;;;;;9.80;98820.00;;;;4905454;29;20048;-66
2024/03/21 04:41:43;;;;;;;5.03;3.78;;;;;9.70;98819.00;;;;4920964;29;20440;-66
2024/03/21 04:44:08;;;;;;;6.47;3.88;;;;;9.70;98825.00;;;;4921134;29;20058;-66
2024/03/21 04:46:34;;;;;;;6.72;4.03;;;;;9.90;98828.00;;;;4920698;29;20040;-66
2024/03/21 04:48:59;;;;;;;7.18;4.35;;;;;9.90;98832.00;;;;4928953;29;20044;-66
2024/03/21 04:51:25;;;;;;;8.95;4.05;;;;;9.90;98822.00;;;;4921345;29;20389;-66
2024/03/21 04:53:51;;;;;;;7.70;4.35;;;;;9.80;98827.00;;;;4928375;29;20052;-66
2024/03/21 04:56:17;;;;;;;8.02;3.95;;;;;9.80;98824.00;;;;4930052;29;20044;-66
2024/03/21 04:58:42;;;;;;;13.75;9.25;;;;;9.80;98831.00;;;;4928930;29;20048;-66
2024/03/21 05:01:08;;;;;;;10.02;5.07;;;;;9.80;98821.00;;;;4944700;29;20056;-66
2024/03/21 05:03:34;;;;;;;6.15;4.35;;;;;9.80;98826.00;;;;4929696;29;20440;-66
2024/03/21 05:05:59;;;;;;;5.93;4.45;;;;;9.90;98835.00;;;;4928704;29;20040;-66
2024/03/21 05:08:25;;;;;;;5.72;4.28;;;;;10.10;98834.00;;;;4929356;29;20052;-66
2024/03/21 05:10:51;;;;;;;6.18;4.03;;;;;10.20;98836.00;;;;4928817;29;20146;-67
2024/03/21 05:13:17;;;;;;;4.97;3.90;;;;;10.30;98847.00;;;;4928894;29;20051;-68
2024/03/21 05:15:52;;;;;;;5.13;4.35;;;;;10.30;98850.00;;;;4909794;29;20460;-68
2024/03/21 05:18:18;;;;;;;8.45;3.83;;;;;10.30;98856.00;;;;4910661;29;20044;-67
2024/03/21 05:20:43;;;;;;;6.53;3.88;;;;;10.30;98858.00;;;;4918170;29;20040;-67
2024/03/21 05:23:09;;;;;;;10.63;4.82;;;;;10.30;98862.00;;;;4918462;29;20472;-66
2024/03/21 05:25:36;;;;;;;6.88;4.50;;;;;10.30;98869.00;;;;4901336;29;20063;-66
2024/03/21 05:28:02;;;;;;;7.88;4.07;;;;;10.30;98867.00;;;;4916912;29;20043;-66
2024/03/21 05:30:29;;;;;;;7.57;4.47;;;;;10.30;98880.00;;;;4901196;29;20055;-66
2024/03/21 05:32:56;;;;;;;7.57;4.60;;;;;10.20;98884.00;;;;4916843;29;20051;-67
2024/03/21 05:35:22;;;;;;;9.45;5.13;;;;;10.30;98881.00;;;;4916702;29;20044;-67
2024/03/21 05:37:48;;;;;;;5.95;3.80;;;;;10.30;98884.00;;;;4916802;29;20067;-67
2024/03/21 05:40:13;;;;;;;8.00;4.25;;;;;10.30;98891.00;;;;4916595;29;20513;-67
2024/03/21 05:42:39;;;;;;;8.25;4.97;;;;;10.30;98890.00;;;;4916615;29;20048;-68
2024/03/21 05:45:05;;;;;;;7.75;4.60;;;;;10.30;98884.00;;;;4916871;29;20044;-67
2024/03/21 05:47:31;;;;;;;7.18;4.38;;;;;10.30;98883.00;;;;4935554;29;20051;-67
2024/03/21 05:49:56;;;;;;;6.32;4.75;;;;;10.30;98894.00;;;;4919741;29;20051;-66
2024/03/21 05:52:22;;;;;;;6.32;5.20;;;;;10.30;98886.00;;;;4919976;29;20057;-67
2024/03/21 05:54:51;;;;;;;6.78;5.05;;;;;10.30;98893.00;;;;4920245;29;20056;-66
2024/03/21 05:57:18;;;;;;;5.82;4.47;;;;;10.40;98898.00;;;;4920064;29;20405;-67
2024/03/21 05:59:43;;;;;;;5.47;4.95;;;;;10.40;98913.00;;;;4920182;29;20099;-68
2024/03/21 06:02:09;;;;;;;7.40;5.70;;;;;10.50;98908.00;;;;4936246;29;20444;-67
2024/03/21 06:04:36;;;;;;;7.28;5.68;;;;;10.50;98899.00;;;;4929507;29;20048;-67
2024/03/21 06:07:03;;;;;;;7.40;4.68;;;;;10.50;98918.00;;;;4932856;29;20044;-67
2024/03/21 06:09:29;;;;;;;8.45;5.00;;;;;10.50;98914.00;;;;4918403;29;20058;-67
2024/03/21 06:11:55;;;;;;;6.43;5.07;;;;;10.50;98910.00;;;;4934887;29;20048;-66
2024/03/21 06:14:21;;;;;;;7.22;4.97;;;;;10.60;98918.00;;;;4935145;29;20063;-67
2024/03/21 06:16:47;;;;;;;8.00;5.88;;;;;10.50;98913.00;;;;4941746;29;20032;-68
2024/03/21 06:19:12;;;;;;;13.43;7.30;;;;;10.50;98925.00;;;;4942458;29;20059;-68
2024/03/21 06:21:38;;;;;;;8.95;4.78;;;;;10.50;98926.00;;;;4944215;29;20059;-67
2024/03/21 06:24:04;;;;;;;7.72;5.45;;;;;10.60;98940.00;;;;4959442;28;20031;-67
2024/03/21 06:26:30;;;;;;;9.63;5.85;;;;;10.60;98938.00;;;;4940986;29;20051;-66
2024/03/21 06:28:55;;;;;;;11.20;6.28;;;;;10.50;98955.00;;;;4935020;29;20048;-67
2024/03/21 06:31:21;;;;;;;11.77;5.90;;;;;10.40;98960.00;;;;4931855;29;20062;-67
2024/03/21 06:33:47;;;;;;;11.80;5.72;;;;;10.40;98965.00;;;;4928521;29;20091;-67
2024/03/21 06:36:13;;;;;;;9.45;6.53;;;;;10.40;98960.00;;;;4924521;29;20043;-66
2024/03/21 06:38:38;;;;;;;8.57;5.97;;;;;10.50;98965.00;;;;4937202;29;20058;-66
2024/03/21 06:41:04;;;;;;;12.07;7.57;;;;;10.50;98967.00;;;;4921250;29;20043;-67
2024/03/21 06:43:30;;;;;;;10.63;7.25;;;;;10.50;98967.00;;;;4922559;29;20036;-67
2024/03/21 06:45:56;;;;;;;15.93;7.05;;;;;10.60;98966.00;;;;4942365;29;20099;-67
2024/03/21 06:48:23;;;;;;;10.68;7.22;;;;;10.50;98973.00;;;;4922772;29;20044;-66
2024/03/21 06:50:49;;;;;;;11.02;6.90;;;;;10.60;98976.00;;;;4919396;29;20047;-67
2024/03/21 06:53:14;;;;;;;9.93;7.05;;;;;10.70;98972.00;;;;4919740;29;20072;-67
2024/03/21 06:55:40;;;;;;;9.90;7.50;;;;;10.80;98976.00;;;;4934682;29;20048;-67
2024/03/21 06:58:06;;;;;;;12.18;7.70;;;;;10.90;98988.00;;;;4918709;29;20079;-66
2024/03/21 07:00:34;;;;;;;11.32;7.15;;;;;10.90;98978.00;;;;4918540;29;20061;-66
2024/03/21 07:03:00;;;;;;;10.88;7.25;;;;;11.10;98976.00;;;;4918530;29;20052;-67
2024/03/21 07:05:26;;;;;;;9.50;6.78;;;;;11.20;98986.00;;;;4934248;29;20102;-68
2024/03/21 07:07:52;;;;;;;9.95;6.97;;;;;11.30;98992.00;;;;4918521;29;20098;-64
2024/03/21 07:10:21;;;;;;;11.60;7.22;;;;;11.40;98994.00;;;;4918303;29;20039;-66
2024/03/21 07:12:47;;;;;;;13.35;7.30;;;;;11.50;99008.00;;;;4934076;29;20048;-65
2024/03/21 07:15:14;;;;;;;14.43;7.80;;;;;11.70;99012.00;;;;4918174;29;20401;-65
2024/03/21 07:17:42;;;;;;;10.27;7.38;;;;;11.90;99011.00;;;;4926792;29;20047;-66
2024/03/21 07:20:10;;;;;;;9.27;7.63;;;;;12.10;99020.00;;;;4918165;29;20043;-65
2024/03/21 07:22:37;;;;;;;11.80;8.23;;;;;12.30;99016.00;;;;4917950;29;20043;-64
2024/03/21 07:25:04;;;;;;;10.10;7.40;;;;;12.50;99018.00;;;;4918327;29;20047;-65
2024/03/21 07:27:30;;;;;;;10.60;7.30;;;;;12.70;99016.00;;;;4918334;29;20441;-64
2024/03/21 07:29:56;;;;;;;15.13;7.55;;;;;12.70;99013.00;;;;4934073;29;20047;-65
2024/03/21 07:32:21;;;;;;;9.82;8.55;;;;;12.90;99019.00;;;;4918135;29;20144;-66
2024/03/21 07:34:50;;;;;;;17.08;8.68;;;;;13.00;99028.00;;;;4933736;29;20138;-66
2024/03/21 07:37:15;;;;;;;13.30;8.68;;;;;13.20;99025.00;;;;4918163;29;20046;-66
2024/03/21 07:39:41;;;;;;;11.65;8.80;;;;;13.20;99027.00;;;;4918255;29;20048;-67
2024/03/21 07:42:07;;;;;;;12.35;8.75;;;;;13.10;99039.00;;;;4918232;29;20047;-67
2024/03/21 07:44:33;;;;;;;10.50;7.82;;;;;13.10;99031.00;;;;4918384;29;20508;-67
2024/03/21 07:46:58;;;;;;;10.60;8.23;;;;;13.10;99037.00;;;;4924488;29;20051;-66
2024/03/21 07:49:24;;;;;;;21.77;11.95;;;;;13.10;99036.00;;;;4936350;29;20083;-67
2024/03/21 07:51:51;;;;;;;14.05;7.93;;;;;13.00;99049.00;;;;4921421;29;20058;-67
2024/03/21 07:54:17;;;;;;;17.67;11.70;;;;;13.00;99044.00;;;;4921241;29;20496;-67
2024/03/21 07:56:42;;;;;;;26.13;11.77;;;;;13.00;99050.00;;;;4921461;29;20048;-66
2024/03/21 07:59:08;;;;;;;12.60;8.52;;;;;13.00;99051.00;;;;4920998;29;20052;-66
2024/03/21 08:01:34;;;;;;;11.38;8.18;;;;;13.10;99044.00;;;;4920525;29;20043;-65
2024/03/21 08:04:04;;;;;;;9.65;7.93;;;;;13.20;99039.00;;;;4920812;29;20047;-65
2024/03/21 08:06:30;;;;;;;11.48;8.02;;;;;13.20;99059.00;;;;4918907;29;20497;-65
2024/03/21 08:08:56;;;;;;;10.80;8.02;;;;;13.10;99067.00;;;;4918581;29;20044;-65
2024/03/21 08:11:22;;;;;;;12.20;8.85;;;;;13.00;99066.00;;;;4934537;29;20063;-66
2024/03/21 08:13:48;;;;;;;14.27;9.90;;;;;13.00;99070.00;;;;4919746;29;20416;-67
2024/03/21 08:16:13;;;;;;;20.70;10.18;;;;;13.20;99068.00;;;;4935240;29;20058;-67
2024/03/21 08:18:39;;;;;;;15.25;9.30;;;;;13.40;99071.00;;;;4918550;29;20064;-65
2024/03/21 08:21:04;;;;;;;12.45;8.38;;;;;13.50;99069.00;;;;4901908;29;20456;-66
2024/03/21 08:23:30;;;;;;;13.13;8.30;;;;;13.60;99069.00;;;;4918229;29;20055;-68
2024/03/21 08:26:02;;;;;;;9.82;7.43;;;;;13.80;99069.00;;;;4917467;29;20055;-68
2024/03/21 08:28:27;;;;;;;16.50;8.43;;;;;13.90;99069.00;;;;4917956;29;20048;-68
2024/03/21 08:30:53;;;;;;;11.82;7.85;;;;;13.90;99072.00;;;;4917615;29;20046;-67
2024/03/21 08:33:19;;;;;;;12.05;8.10;;;;;14.10;99072.00;;;;4918681;29;20118;-68
2024/03/21 08:35:44;;;;;;;10.35;8.15;;;;;14.20;99079.00;;;;4921036;29;20476;-67
2024/03/21 08:38:10;;;;;;;10.98;8.82;;;;;14.40;99082.00;;;;4921585;29;20095;-67
2024/03/21 08:40:36;;;;;;;13.02;8.05;;;;;14.60;99095.00;;;;4922540;29;20047;-68
2024/03/21 08:43:03;;;;;;;22.80;16.27;;;;;14.70;99104.00;;;;4921595;29;20052;-68
2024/03/21 08:45:28;;;;;;;14.45;10.10;;;;;14.80;99088.00;;;;4921332;29;20091;-68
2024/03/21 08:47:54;;;;;;;15.07;9.32;;;;;14.80;99094.00;;;;4921714;29;20043;-68
2024/03/21 08:50:20;;;;;;;17.75;9.27;;;;;14.90;99086.00;;;;4921653;29;20051;-68
2024/03/21 08:52:46;;;;;;;15.07;9.38;;;;;15.10;99104.00;;;;4921053;29;20056;-67
2024/03/21 08:55:13;;;;;;;12.73;8.77;;;;;15.10;99101.00;;;;4920897;29;20056;-67
2024/03/21 08:57:39;;;;;;;13.48;8.52;;;;;15.10;99112.00;;;;4922428;29;20046;-66
2024/03/21 09:00:05;;;;;;;14.48;9.23;;;;;15.20;99112.00;;;;4920991;29;20056;-66
2024/03/21 09:02:31;;;;;;;14.63;9.50;;;;;15.40;99119.00;;;;4920519;29;20047;-66
2024/03/21 09:04:56;;;;;;;22.90;16.27;;;;;15.60;99124.00;;;;4920952;29;20040;-66
2024/03/21 09:07:22;;;;;;;26.00;16.95;;;;;15.70;99127.00;;;;4920758;29;20138;-65
2024/03/21 09:09:48;;;;;;;27.50;21.35;;;;;15.80;99119.00;;;;4921077;29;20066;-66
2024/03/21 09:12:14;;;;;;;31.08;22.65;;;;;15.80;99130.00;;;;4904495;29;20048;-66
2024/03/21 09:14:39;;;;;;;29.60;20.20;;;;;16.00;99125.00;;;;4936745;29;20424;-67
2024/03/21 09:17:05;;;;;;;30.45;20.60;;;;;16.10;99124.00;;;;4920225;29;20420;-67
2024/03/21 09:19:30;;;;;;;32.97;22.95;;;;;16.20;99141.00;;;;4930978;29;20054;-67
2024/03/21 09:21:56;;;;;;;33.05;23.73;;;;;16.40;99126.00;;;;4920098;29;20138;-66
2024/03/21 09:24:23;;;;;;;33.50;23.40;;;;;16.30;99135.00;;;;4920300;29;20079;-66
2024/03/21 09:26:48;;;;;;;31.77;23.55;;;;;16.40;99142.00;;;;4920459;29;20095;-66
2024/03/21 09:29:14;;;;;;;31.48;23.08;;;;;16.50;99134.00;;;;4935846;29;20501;-66
2024/03/21 09:31:40;;;;;;;33.55;24.35;;;;;16.60;99134.00;;;;4919727;29;20481;-66
2024/03/21 09:34:06;;;;;;;36.90;23.85;;;;;16.80;99129.00;;;;4920067;29;20047;-66
2024/03/21 09:36:31;;;;;;;33.50;25.27;;;;;17.00;99128.00;;;;4919800;29;20152;-66
2024/03/21 09:38:57;;;;;;;37.15;27.17;;;;;17.10;99132.00;;;;4920365;29;20050;-66
2024/03/21 09:41:24;;;;;;;36.85;28.10;;;;;17.30;99135.00;;;;4919645;29;20099;-66
2024/03/21 09:43:51;;;;;;;36.85;26.45;;;;;17.40;99145.00;;;;4919892;29;20051;-66
2024/03/21 09:46:17;;;;;;;37.33;27.15;;;;;17.60;99138.00;;;;4915560;29;20657;-67
2024/03/21 09:48:43;;;;;;;35.80;26.20;;;;;17.80;99136.00;;;;4923479;29;20051;-67
2024/03/21 09:51:16;;;;;;;36.88;27.77;;;;;18.00;99135.00;;;;4919872;29;20047;-65
2024/03/21 09:53:42;;;;;;;39.30;28.30;;;;;17.90;99144.00;;;;4919737;29;20103;-68
2024/03/21 09:56:09;;;;;;;33.45;27.15;;;;;17.80;99144.00;;;;4919648;29;20044;-64
2024/03/21 09:58:35;;;;;;;38.72;28.27;;;;;18.10;99149.00;;;;4919680;29;20091;-66
2024/03/21 10:01:03;;;;;;;36.97;27.70;;;;;18.00;99159.00;;;;4919381;29;20122;-66
2024/03/21 10:03:28;;;;;;;37.88;28.00;;;;;17.90;99161.00;;;;4919646;29;20047;-66
2024/03/21 10:06:04;;;;;;;39.92;27.67;;;;;17.90;99172.00;;;;4919575;29;20138;-65
2024/03/21 10:08:31;;;;;;;40.33;29.20;;;;;17.70;99167.00;;;;4919468;29;20043;-65
2024/03/21 10:10:58;;;;;;;37.83;28.58;;;;;17.80;99163.00;;;;4919321;29;20044;-66
2024/03/21 10:13:24;;;;;;;40.88;29.05;;;;;18.00;99166.00;;;;4919513;29;20507;-66
2024/03/21 10:15:51;;;;;;;40.58;28.58;;;;;18.00;99174.00;;;;4916000;29;20516;-67
2024/03/21 10:18:17;;;;;;;39.63;29.55;;;;;17.90;99172.00;;;;4926910;29;20043;-66
2024/03/21 10:20:42;;;;;;;40.65;30.85;;;;;17.70;99173.00;;;;4903672;29;20047;-67
2024/03/21 10:23:15;;;;;;;38.67;26.88;;;;;17.60;99172.00;;;;4919709;29;20050;-67
2024/03/21 10:25:42;;;;;;;39.78;28.60;;;;;17.50;99177.00;;;;4903402;29;20592;-66
2024/03/21 10:28:17;;;;;;;36.65;26.35;;;;;17.50;99165.00;;;;4918985;29;20101;-66
2024/03/21 10:30:44;;;;;;;37.90;25.55;;;;;17.50;99162.00;;;;4918568;29;20507;-66
2024/03/21 10:33:16;;;;;;;35.75;24.95;;;;;17.40;99164.00;;;;4918922;29;20039;-66
2024/03/21 10:35:43;;;;;;;34.47;25.10;;;;;17.40;99173.00;;;;4918680;29;20043;-66
2024/03/21 10:38:15;;;;;;;32.42;24.33;;;;;17.50;99165.00;;;;4918947;29;20072;-66
2024/03/21 10:40:52;;;;;;;29.83;22.13;;;;;17.80;99167.00;;;;4934358;29;20397;-67
2024/03/21 10:43:20;;;;;;;35.17;24.35;;;;;18.10;99179.00;;;;4918723;29;20039;-66
2024/03/21 10:45:46;;;;;;;30.73;23.88;;;;;18.20;99176.00;;;;4915419;29;20040;-67
2024/03/21 10:48:29;;;;;;;31.75;24.02;;;;;18.30;99188.00;;;;4917981;29;20039;-66
2024/03/21 10:50:55;;;;;;;33.47;23.10;;;;;18.10;99181.00;;;;4918568;29;20048;-67
2024/03/21 10:53:22;;;;;;;34.10;24.17;;;;;18.10;99184.00;;;;4918811;29;20053;-66
2024/03/21 10:55:50;;;;;;;29.88;22.60;;;;;18.30;99185.00;;;;4902413;29;20044;-66
2024/03/21 10:58:18;;;;;;;28.88;21.67;;;;;18.50;99194.00;;;;4918558;29;20519;-67
2024/03/21 11:00:53;;;;;;;34.75;23.67;;;;;18.70;99198.00;;;;4934257;29;20516;-66
2024/03/21 11:03:22;;;;;;;33.33;24.08;;;;;18.70;99189.00;;;;4918438;29;20035;-66
2024/03/21 11:05:55;;;;;;;36.08;23.85;;;;;18.50;99203.00;;;;4918350;29;20040;-66
2024/03/21 11:08:28;;;;;;;30.70;23.92;;;;;18.40;99215.00;;;;4918295;29;20055;-66
2024/03/21 11:10:57;;;;;;;31.80;23.05;;;;;18.10;99214.00;;;;4918566;29;20047;-66
2024/03/21 11:13:25;;;;;;;30.70;22.17;;;;;17.90;99215.00;;;;4918213;29;20055;-66
2024/03/21 11:15:55;;;;;;;28.73;22.77;;;;;18.00;99207.00;;;;4933717;29;20519;-67
2024/03/21 11:18:21;;;;;;;30.88;21.10;;;;;18.10;99211.00;;;;4918156;29;20106;-66
2024/03/21 11:20:47;;;;;;;29.95;22.00;;;;;18.20;99212.00;;;;4917864;29;20564;-67
2024/03/21 11:23:15;;;;;;;28.40;20.92;;;;;18.40;99210.00;;;;4918408;29;20048;-66
2024/03/21 11:25:41;;;;;;;29.55;21.95;;;;;18.50;99211.00;;;;4918532;29;20114;-66
2024/03/21 11:28:11;;;;;;;29.65;22.45;;;;;18.40;99212.00;;;;4918448;29;20106;-67
2024/03/21 11:30:42;;;;;;;28.15;19.88;;;;;18.30;99203.00;;;;4918302;29;20099;-69
2024/03/21 11:33:09;;;;;;;26.48;20.38;;;;;18.20;99196.00;;;;4918907;29;20040;-66
2024/03/21 11:35:39;;;;;;;26.05;20.38;;;;;18.20;99198.00;;;;4918275;29;20052;-66
2024/03/21 11:38:07;;;;;;;27.92;20.55;;;;;18.30;99198.00;;;;4918557;29;20094;-67
2024/03/21 11:40:34;;;;;;;23.30;16.50;;;;;18.40;99195.00;;;;4918041;29;20058;-67
2024/03/21 11:43:05;;;;;;;18.40;14.30;;;;;18.30;99206.00;;;;4918223;29;20039;-68
2024/03/21 11:45:31;;;;;;;19.88;14.95;;;;;18.30;99209.00;;;;4917902;29;20131;-65
2024/03/21 11:48:08;;;;;;;18.05;13.88;;;;;18.40;99203.00;;;;4917835;29;20102;-67
2024/03/21 11:50:44;;;;;;;18.65;14.07;;;;;18.60;99205.00;;;;4917870;29;20058;-67
2024/03/21 11:53:10;;;;;;;19.35;13.95;;;;;18.80;99211.00;;;;4918051;29;20055;-66
2024/03/21 11:55:39;;;;;;;19.45;14.80;;;;;19.00;99215.00;;;;4918417;29;20044;-66
2024/03/21 11:58:04;;;;;;;20.38;15.35;;;;;19.20;99218.00;;;;4902132;29;20142;-67
2024/03/21 12:00:30;;;;;;;18.13;14.70;;;;;19.20;99219.00;;;;4917819;29;20043;-66
2024/03/21 12:02:56;;;;;;;18.88;14.98;;;;;19.30;99221.00;;;;4917877;29;20044;-67
2024/03/21 12:05:21;;;;;;;16.60;11.63;;;;;19.20;99231.00;;;;4917900;29;20095;-67
2024/03/21 12:07:47;;;;;;;16.23;12.65;;;;;19.10;99227.00;;;;4918113;29;20493;-67
2024/03/21 12:10:13;;;;;;;13.55;10.55;;;;;19.10;99227.00;;;;4921504;29;20107;-66